Time;durP1;ratioP1;P1;durP2;ratioP2;P2;SDS_P1;SDS_P2;PMS_P1;PMS_P2;Temp;Humidity;BMP_temperature;BMP_pressure;BME280_temperature;BME280_humidity;BME280_pressure;Samples;Min_cycle;Max_cycle;Signal;HPM_P1;HPM_P2
2022/11/09 00:01:27;;;;;;;;;4.33;4.33;;;;;14.76;72.73;100346.97;4980135;28;45430;-71
2022/11/09 00:03:58;;;;;;;;;3.67;2.67;;;;;14.71;72.59;100330.63;4980107;28;47238;-69
2022/11/09 00:06:24;;;;;;;;;4.33;2.67;;;;;14.65;72.60;100326.00;4979828;28;45342;-70
2022/11/09 00:08:49;;;;;;;;;4.25;4.25;;;;;14.75;72.89;100347.97;4979244;28;45274;-71
2022/11/09 00:11:14;;;;;;;;;3.33;2.33;;;;;14.77;72.64;100350.47;4980536;28;45416;-70
2022/11/09 00:13:42;;;;;;;;;5.00;3.33;;;;;14.67;72.91;100334.69;4979058;28;55355;-70
2022/11/09 00:16:09;;;;;;;;;4.33;4.00;;;;;14.71;72.79;100346.69;4979257;28;45218;-71
2022/11/09 00:18:36;;;;;;;;;5.00;4.00;;;;;14.57;72.24;100334.06;4977722;28;45371;-70
2022/11/09 00:21:10;;;;;;;;;6.33;3.67;;;;;14.84;72.55;100371.00;4979676;28;45554;-71
2022/11/09 00:23:36;;;;;;;;;3.33;2.00;;;;;14.85;73.17;100363.78;4978225;28;46259;-71
2022/11/09 00:26:06;;;;;;;;;4.00;3.00;;;;;14.16;73.85;100250.63;4994136;28;45436;-70
2022/11/09 00:28:33;;;;;;;;;3.75;3.25;;;;;14.79;74.30;100345.75;4994717;28;45351;-71
2022/11/09 00:31:03;;;;;;;;;2.00;2.00;;;;;14.88;74.52;100361.59;4979663;28;45449;-70
2022/11/09 00:33:29;;;;;;;;;6.67;5.00;;;;;14.72;74.90;100315.41;4978920;28;46960;-71
2022/11/09 00:35:54;;;;;;;;;4.00;3.67;;;;;14.85;74.38;100320.97;4978869;28;45812;-69
2022/11/09 00:38:20;;;;;;;;;5.25;2.50;;;;;14.64;74.72;100292.22;4979088;28;45479;-69
2022/11/09 00:40:45;;;;;;;;;3.75;3.75;;;;;14.76;75.05;100311.34;4979956;28;45417;-70
2022/11/09 00:43:10;;;;;;;;;5.00;3.00;;;;;14.74;74.83;100324.91;4978232;28;47876;-71
2022/11/09 00:45:36;;;;;;;;;4.00;2.67;;;;;14.53;75.31;100301.50;4980352;28;45449;-71
2022/11/09 00:48:02;;;;;;;;;4.00;4.00;;;;;14.70;75.34;100317.41;4979170;28;45562;-71
2022/11/09 00:50:27;;;;;;;;;2.67;2.67;;;;;14.67;75.55;100339.19;4979733;28;45514;-72
2022/11/09 00:52:53;;;;;;;;;2.67;2.00;;;;;13.47;75.87;100133.09;4978883;28;45981;-69
2022/11/09 00:55:19;;;;;;;;;2.00;2.00;;;;;14.31;75.38;100264.91;4978862;28;45247;-70
2022/11/09 00:57:48;;;;;;;;;2.33;2.33;;;;;14.63;75.42;100306.63;4978893;28;45393;-70
2022/11/09 01:00:16;;;;;;;;;7.00;2.67;;;;;14.32;75.32;100275.41;4979725;28;45278;-71
2022/11/09 01:02:42;;;;;;;;;4.67;2.67;;;;;14.56;75.35;100305.66;4979298;28;45842;-71
2022/11/09 01:05:07;;;;;;;;;3.67;2.67;;;;;14.68;75.05;100338.19;4979583;28;45256;-71
2022/11/09 01:07:33;;;;;;;;;3.33;3.33;;;;;14.67;74.67;100333.84;4974955;28;45461;-72
2022/11/09 01:10:00;;;;;;;;;2.25;2.25;;;;;14.49;74.95;100304.72;4976929;28;45523;-71
2022/11/09 01:12:26;;;;;;;;;3.00;3.00;;;;;14.57;75.22;100331.41;4975914;28;45444;-71
2022/11/09 01:14:51;;;;;;;;;2.33;1.67;;;;;14.63;74.88;100328.03;4991773;28;45402;-70
2022/11/09 01:17:16;;;;;;;;;4.00;3.00;;;;;14.75;74.71;100357.84;4977490;28;45882;-75
2022/11/09 01:19:42;;;;;;;;;2.33;1.00;;;;;14.61;74.56;100325.50;4975100;28;45361;-70
2022/11/09 01:22:07;;;;;;;;;4.33;1.33;;;;;14.38;74.49;100297.91;4976928;28;45720;-70
2022/11/09 01:24:32;;;;;;;;;1.67;1.67;;;;;14.35;74.39;100287.59;4978290;28;45551;-71
2022/11/09 01:26:58;;;;;;;;;2.75;1.75;;;;;14.60;74.46;100339.06;4993568;28;45786;-70
2022/11/09 01:29:23;;;;;;;;;2.33;2.00;;;;;14.68;74.27;100362.25;4978373;28;45495;-70
2022/11/09 01:31:48;;;;;;;;;2.00;1.33;;;;;14.69;74.41;100367.44;4978302;28;46529;-69
2022/11/09 01:34:16;;;;;;;;;5.67;2.33;;;;;14.68;74.33;100367.63;4977935;28;45662;-70
2022/11/09 01:36:41;;;;;;;;;2.33;2.33;;;;;14.60;74.33;100365.81;4978295;28;45342;-71
2022/11/09 01:39:07;;;;;;;;;1.25;0.75;;;;;14.48;74.20;100359.25;4993203;28;45532;-69
2022/11/09 01:41:32;;;;;;;;;2.67;2.33;;;;;14.39;74.80;100378.97;4977709;28;53519;-74
2022/11/09 01:44:12;;;;;;;;;1.67;1.67;;;;;13.71;74.73;100268.31;4977965;28;47452;-70
2022/11/09 01:46:52;;;;;;;;;3.67;2.00;;;;;14.38;74.65;100393.38;4977989;28;45430;-70
2022/11/09 01:49:27;;;;;;;;;2.67;2.00;;;;;14.37;75.06;100397.88;4993259;28;45387;-71
2022/11/09 01:52:03;;;;;;;;;2.00;2.00;;;;;14.27;75.15;100384.75;4976656;28;46560;-70
2022/11/09 01:54:33;;;;;;;;;2.33;1.00;;;;;14.19;75.24;100395.47;4977751;28;45298;-70
2022/11/09 01:57:04;;;;;;;;;2.00;2.00;;;;;14.21;75.43;100406.00;4978707;28;45365;-71
2022/11/09 01:59:35;;;;;;;;;3.00;3.00;;;;;13.99;75.64;100388.91;4978482;28;45227;-70
2022/11/09 02:02:01;;;;;;;;;2.67;2.33;;;;;14.08;75.88;100403.91;4977974;28;45755;-72
2022/11/09 02:04:32;;;;;;;;;2.67;2.67;;;;;13.93;76.21;100390.44;4993288;28;45469;-69
2022/11/09 02:06:59;;;;;;;;;2.75;2.50;;;;;13.66;76.16;100354.34;4977833;28;45349;-70
2022/11/09 02:09:50;;;;;;;;;4.50;1.50;;;;;13.91;76.36;100399.66;4992840;28;45620;-71
2022/11/09 02:12:17;;;;;;;;;3.67;3.67;;;;;13.78;76.14;100383.31;4977667;28;46790;-69
2022/11/09 02:14:44;;;;;;;;;4.00;1.67;;;;;13.92;76.37;100412.00;4977807;28;45333;-71
2022/11/09 02:17:11;;;;;;;;;3.00;2.25;;;;;13.75;76.13;100389.84;4977791;28;45341;-70
2022/11/09 02:19:36;;;;;;;;;3.33;2.33;;;;;13.66;75.84;100373.03;4978116;28;45453;-71
2022/11/09 02:22:02;;;;;;;;;1.33;1.33;;;;;13.82;76.18;100408.72;4977330;28;61349;-71
2022/11/09 02:24:27;;;;;;;;;2.67;2.00;;;;;13.43;75.46;100350.75;4977768;28;45688;-70
2022/11/09 02:26:55;;;;;;;;;4.67;3.00;;;;;13.84;75.85;100420.06;4977926;28;45717;-71
2022/11/09 02:29:39;;;;;;;;;2.67;1.33;;;;;13.56;76.01;100359.03;4977976;28;45265;-70
2022/11/09 02:32:12;;;;;;;;;2.00;2.00;;;;;12.92;75.92;100261.28;4977970;28;46554;-71
2022/11/09 02:34:38;;;;;;;;;2.33;2.33;;;;;13.55;75.89;100373.41;4977114;28;45180;-71
2022/11/09 02:37:03;;;;;;;;;2.25;1.50;;;;;13.71;76.32;100407.25;4977160;28;45310;-70
2022/11/09 02:39:28;;;;;;;;;4.00;2.00;;;;;13.69;75.83;100410.09;4977781;28;45465;-70
2022/11/09 02:42:08;;;;;;;;;2.33;1.33;;;;;12.78;75.95;100266.31;4977292;28;45517;-70
2022/11/09 02:44:38;;;;;;;;;2.33;2.33;;;;;13.69;75.93;100412.75;4977471;28;45367;-70
2022/11/09 02:47:04;;;;;;;;;4.00;2.00;;;;;13.40;75.67;100375.09;4979629;28;45468;-70
2022/11/09 02:49:29;;;;;;;;;4.00;2.00;;;;;13.59;75.54;100409.44;4981153;28;45270;-70
2022/11/09 02:51:54;;;;;;;;;4.33;2.00;;;;;13.39;75.48;100382.28;4980838;28;46521;-70
2022/11/09 02:54:20;;;;;;;;;3.00;2.00;;;;;13.46;75.85;100398.47;4979218;28;52317;-70
2022/11/09 02:56:45;;;;;;;;;2.67;1.00;;;;;12.73;75.84;100289.16;4980912;28;45308;-71
2022/11/09 02:59:10;;;;;;;;;4.33;2.00;;;;;13.35;75.86;100404.16;4980168;28;59585;-70
2022/11/09 03:01:35;;;;;;;;;1.00;1.00;;;;;13.49;75.80;100418.66;4980364;28;47416;-70
2022/11/09 03:04:01;;;;;;;;;4.00;1.67;;;;;13.44;75.48;100426.34;4995659;28;45492;-70
2022/11/09 03:06:35;;;;;;;;;3.00;2.00;;;;;13.49;75.48;100432.84;4980579;28;45207;-72
2022/11/09 03:09:02;;;;;;;;;3.00;2.00;;;;;13.44;75.15;100431.69;4980752;28;45595;-70
2022/11/09 03:11:28;;;;;;;;;2.33;0.67;;;;;12.66;75.08;100304.19;4978772;28;45806;-71
2022/11/09 03:13:53;;;;;;;;;1.00;1.00;;;;;13.45;74.85;100436.88;4980187;28;45393;-70
2022/11/09 03:16:19;;;;;;;;;0.33;0.33;;;;;13.44;74.96;100442.38;4978789;28;45421;-70
2022/11/09 03:18:44;;;;;;;;;2.00;2.00;;;;;13.43;75.05;100432.72;4979373;28;45302;-69
2022/11/09 03:21:09;;;;;;;;;2.67;1.00;;;;;13.17;74.97;100388.31;4978497;28;66405;-70
2022/11/09 03:23:34;;;;;;;;;3.00;1.33;;;;;13.44;74.61;100439.72;4994937;28;45699;-70
2022/11/09 03:26:00;;;;;;;;;0.00;0.00;;;;;13.45;74.92;100446.72;4978911;28;45343;-71
2022/11/09 03:28:25;;;;;;;;;2.00;0.00;;;;;13.30;74.53;100409.19;4979352;28;45262;-70
2022/11/09 03:30:51;;;;;;;;;1.33;1.00;;;;;13.01;74.19;100354.50;4980464;28;45820;-71
2022/11/09 03:33:16;;;;;;;;;1.00;0.00;;;;;13.28;74.39;100412.03;4980285;28;45360;-70
2022/11/09 03:35:42;;;;;;;;;0.33;0.00;;;;;13.21;74.10;100386.16;4980217;28;45418;-70
2022/11/09 03:38:08;;;;;;;;;2.00;0.00;;;;;13.29;73.44;100423.53;4979898;28;45454;-69
2022/11/09 03:40:33;;;;;;;;;0.25;0.00;;;;;13.43;73.99;100444.22;4979256;28;61356;-70
2022/11/09 03:42:58;;;;;;;;;2.33;2.00;;;;;13.03;73.82;100387.19;4980533;28;45523;-70
2022/11/09 03:45:24;;;;;;;;;3.00;2.00;;;;;12.97;73.48;100374.50;4980664;28;45512;-70
2022/11/09 03:47:49;;;;;;;;;1.00;1.00;;;;;13.01;74.02;100391.84;4980740;28;45261;-72
2022/11/09 03:50:16;;;;;;;;;1.00;1.00;;;;;12.99;74.04;100401.84;4979925;28;45500;-69
2022/11/09 03:52:46;;;;;;;;;1.00;1.00;;;;;12.34;73.76;100315.66;4980747;28;45501;-69
2022/11/09 03:55:12;;;;;;;;;1.00;1.00;;;;;13.15;73.93;100422.34;4980182;28;45339;-71
2022/11/09 03:57:38;;;;;;;;;0.00;0.00;;;;;13.21;74.19;100434.22;4978697;28;45374;-69
2022/11/09 04:00:06;;;;;;;;;2.25;0.75;;;;;13.25;74.13;100454.25;4979602;28;46960;-69
2022/11/09 04:02:31;;;;;;;;;1.50;0.75;;;;;12.39;74.16;100322.16;4979715;28;45274;-70
2022/11/09 04:04:56;;;;;;;;;1.00;0.00;;;;;13.20;74.21;100459.25;4979819;28;45246;-69
2022/11/09 04:07:22;;;;;;;;;0.00;0.00;;;;;13.19;74.35;100454.91;4979930;28;45260;-69
2022/11/09 04:09:47;;;;;;;;;0.00;0.00;;;;;12.82;74.63;100397.53;4979249;28;46379;-69
2022/11/09 04:12:12;;;;;;;;;1.00;1.00;;;;;12.78;74.15;100404.19;4977676;28;58817;-71
2022/11/09 04:14:37;;;;;;;;;1.75;0.25;;;;;13.05;74.94;100467.06;4979341;28;45350;-70
2022/11/09 04:17:03;;;;;;;;;0.00;0.00;;;;;12.73;74.39;100410.03;4979848;28;45346;-70
2022/11/09 04:19:28;;;;;;;;;0.00;0.00;;;;;13.03;74.71;100475.25;4979596;28;46031;-71
2022/11/09 04:21:53;;;;;;;;;0.00;0.00;;;;;12.94;74.65;100454.88;4978716;28;59964;-71
2022/11/09 04:24:20;;;;;;;;;0.50;0.50;;;;;12.24;74.38;100350.50;4979434;28;45395;-69
2022/11/09 04:26:46;;;;;;;;;3.00;0.00;;;;;12.88;74.74;100466.22;4994511;28;45744;-70
2022/11/09 04:29:12;;;;;;;;;0.00;0.00;;;;;12.37;75.17;100382.81;4979075;28;45409;-70
2022/11/09 04:31:37;;;;;;;;;2.00;0.00;;;;;12.23;75.10;100362.16;4978946;28;45473;-71
2022/11/09 04:34:02;;;;;;;;;0.00;0.00;;;;;12.57;74.66;100425.16;4993966;28;47200;-70
2022/11/09 04:36:28;;;;;;;;;3.67;1.00;;;;;12.92;75.37;100482.72;4994415;28;45488;-71
2022/11/09 04:38:53;;;;;;;;;2.25;1.25;;;;;12.61;75.23;100447.84;4978799;28;45724;-70
2022/11/09 04:41:19;;;;;;;;;0.00;0.00;;;;;12.69;75.55;100466.53;4979177;28;45590;-70
2022/11/09 04:43:44;;;;;;;;;1.67;1.00;;;;;12.68;75.59;100472.88;4982882;28;45253;-70
2022/11/09 04:46:10;;;;;;;;;0.67;0.00;;;;;12.90;75.52;100514.91;4980536;28;45385;-71
2022/11/09 04:48:35;;;;;;;;;0.67;0.67;;;;;12.83;75.43;100508.59;4993774;28;52567;-71
2022/11/09 04:51:05;;;;;;;;;0.33;0.33;;;;;12.62;75.79;100463.69;4979023;28;45413;-70
2022/11/09 04:53:32;;;;;;;;;2.67;1.00;;;;;12.11;75.70;100374.94;4993796;28;45445;-69
2022/11/09 04:55:58;;;;;;;;;1.00;1.00;;;;;12.93;75.84;100525.25;4977569;28;45430;-71
2022/11/09 04:58:24;;;;;;;;;3.00;2.00;;;;;12.81;75.89;100502.53;4978391;28;45525;-71
2022/11/09 05:00:49;;;;;;;;;2.00;2.00;;;;;12.87;76.01;100517.94;4978779;28;45456;-69
2022/11/09 05:03:15;;;;;;;;;0.33;0.33;;;;;12.82;76.13;100509.59;4980304;28;45295;-71
2022/11/09 05:05:41;;;;;;;;;1.00;0.67;;;;;12.50;75.81;100459.66;4978956;28;45512;-70
2022/11/09 05:08:06;;;;;;;;;3.67;1.67;;;;;12.67;75.79;100481.88;4978278;28;46196;-70
2022/11/09 05:10:33;;;;;;;;;2.33;1.00;;;;;12.83;75.57;100505.91;4993125;28;45215;-70
2022/11/09 05:12:58;;;;;;;;;2.00;0.33;;;;;12.71;75.88;100496.53;4978338;28;45484;-72
2022/11/09 05:15:24;;;;;;;;;0.67;0.67;;;;;12.76;75.77;100504.88;4978226;28;45726;-72
2022/11/09 05:17:49;;;;;;;;;1.67;1.00;;;;;12.86;75.49;100507.41;4978409;28;45512;-70
2022/11/09 05:20:15;;;;;;;;;0.33;0.33;;;;;12.76;75.91;100494.22;4978262;28;45572;-70
2022/11/09 05:25:24;;;;;;;;;1.67;1.67;;;;;12.89;75.61;100515.91;4978627;28;45376;-70
2022/11/09 05:27:50;;;;;;;;;3.67;1.00;;;;;12.75;75.60;100490.72;4977981;28;45548;-71
2022/11/09 05:30:16;;;;;;;;;2.00;1.00;;;;;12.82;75.74;100504.25;4978111;28;45465;-70
2022/11/09 05:32:41;;;;;;;;;2.25;1.75;;;;;12.85;76.15;100506.59;4992971;28;45255;-70
2022/11/09 05:35:07;;;;;;;;;2.67;1.00;;;;;12.86;76.00;100512.75;4978390;28;45337;-70
2022/11/09 05:37:32;;;;;;;;;3.33;1.00;;;;;12.86;75.83;100524.25;4978169;28;46297;-70
2022/11/09 05:39:57;;;;;;;;;2.00;1.00;;;;;12.80;76.09;100516.88;4977847;28;45199;-70
2022/11/09 05:42:23;;;;;;;;;2.00;2.00;;;;;12.46;75.91;100443.16;4977325;28;45304;-69
2022/11/09 05:44:49;;;;;;;;;1.67;1.67;;;;;10.89;75.12;100182.00;4979134;28;45197;-69
2022/11/09 05:47:14;;;;;;;;;2.67;1.00;;;;;12.88;75.33;100508.09;4978381;28;46395;-71
2022/11/09 05:49:39;;;;;;;;;1.00;1.00;;;;;12.56;75.48;100450.16;4978115;28;45473;-70
2022/11/09 05:52:05;;;;;;;;;1.50;1.50;;;;;12.83;75.80;100502.41;4978433;28;45211;-70
2022/11/09 05:54:30;;;;;;;;;3.00;3.00;;;;;12.95;75.71;100522.41;4978047;28;45366;-71
2022/11/09 05:56:56;;;;;;;;;3.00;1.00;;;;;12.73;75.56;100494.53;4977915;28;45268;-70
2022/11/09 05:59:21;;;;;;;;;1.67;1.67;;;;;12.89;75.97;100523.94;4978280;28;45306;-71
2022/11/09 06:01:46;;;;;;;;;3.00;2.00;;;;;12.76;76.47;100507.56;4977458;28;45230;-70
2022/11/09 06:04:12;;;;;;;;;3.00;3.00;;;;;12.92;76.10;100539.59;4977201;28;45588;-70
2022/11/09 06:06:37;;;;;;;;;3.33;2.00;;;;;12.91;76.56;100542.44;4992984;28;47831;-70
2022/11/09 06:09:03;;;;;;;;;4.33;2.33;;;;;12.72;76.26;100506.22;4977248;28;45678;-72
2022/11/09 06:11:28;;;;;;;;;4.00;4.00;;;;;12.92;76.98;100536.09;4977770;28;45326;-71
2022/11/09 06:13:53;;;;;;;;;5.33;3.00;;;;;12.59;76.80;100484.50;4977763;28;45286;-70
2022/11/09 06:16:19;;;;;;;;;3.67;3.67;;;;;12.79;76.94;100518.72;4977628;28;46379;-70
2022/11/09 06:18:45;;;;;;;;;4.00;4.00;;;;;12.85;77.64;100543.09;4977621;28;45511;-73
2022/11/09 06:21:10;;;;;;;;;4.00;3.00;;;;;12.71;77.15;100525.88;4992926;28;45329;-71
2022/11/09 06:23:35;;;;;;;;;8.67;8.67;;;;;12.76;77.67;100528.88;4976977;28;45467;-70
2022/11/09 06:26:08;;;;;;;;;13.33;12.33;;;;;12.76;77.97;100552.91;4977623;28;46928;-71
2022/11/09 06:28:33;;;;;;;;;6.67;4.33;;;;;12.84;77.89;100547.59;4977587;28;45354;-71
2022/11/09 06:31:00;;;;;;;;;7.33;3.33;;;;;12.85;78.23;100557.28;4978221;28;45561;-71
2022/11/09 06:33:26;;;;;;;;;6.67;5.00;;;;;12.43;77.69;100494.16;4976858;28;45477;-71
2022/11/09 06:35:52;;;;;;;;;5.67;5.00;;;;;12.82;77.70;100548.78;4992151;28;46147;-70
2022/11/09 06:38:17;;;;;;;;;6.00;5.00;;;;;12.86;77.93;100560.78;4991734;28;45400;-71
2022/11/09 06:40:42;;;;;;;;;5.00;3.25;;;;;12.39;78.27;100481.28;4976961;28;44913;-71
2022/11/09 06:43:08;;;;;;;;;4.67;4.00;;;;;12.64;77.84;100528.38;4977762;28;45541;-72
2022/11/09 06:45:34;;;;;;;;;4.33;3.00;;;;;12.76;78.18;100550.22;4976175;28;47412;-71
2022/11/09 06:48:01;;;;;;;;;3.67;3.67;;;;;12.84;77.92;100568.94;4977349;28;45283;-70
2022/11/09 06:50:29;;;;;;;;;5.00;4.00;;;;;12.93;77.46;100583.97;4977570;28;45248;-71
2022/11/09 06:52:56;;;;;;;;;3.00;3.00;;;;;12.24;78.00;100462.44;4992228;28;45307;-71
2022/11/09 06:55:22;;;;;;;;;6.00;5.00;;;;;12.83;77.97;100561.94;4977220;28;46295;-70
2022/11/09 06:57:47;;;;;;;;;6.67;6.67;;;;;12.86;78.00;100577.63;4977609;28;45388;-71
2022/11/09 07:00:13;;;;;;;;;6.00;6.00;;;;;13.03;77.83;100589.16;4977258;28;45474;-70
2022/11/09 07:02:38;;;;;;;;;6.00;4.00;;;;;12.94;77.05;100569.63;4976650;28;45151;-70
2022/11/09 07:05:04;;;;;;;;;5.00;5.00;;;;;13.06;77.68;100583.50;4977195;28;46326;-70
2022/11/09 07:07:30;;;;;;;;;4.33;4.33;;;;;13.03;77.94;100589.16;4977765;28;45284;-71
2022/11/09 07:09:56;;;;;;;;;6.67;6.67;;;;;12.59;77.76;100512.00;4977280;28;45375;-71
2022/11/09 07:12:22;;;;;;;;;4.00;4.00;;;;;12.65;77.79;100534.56;4978335;28;45262;-70
2022/11/09 07:14:47;;;;;;;;;10.00;8.33;;;;;13.09;78.12;100601.84;4976014;28;46795;-70
2022/11/09 07:17:12;;;;;;;;;4.00;4.00;;;;;12.35;77.89;100479.94;4976286;28;45575;-73
2022/11/09 07:19:38;;;;;;;;;5.33;5.00;;;;;12.93;78.31;100578.63;4977358;28;45509;-71
2022/11/09 07:22:03;;;;;;;;;5.00;3.33;;;;;12.93;78.14;100577.78;4980232;28;45359;-75
2022/11/09 07:24:28;;;;;;;;;6.33;4.33;;;;;12.97;78.26;100595.97;4982140;28;47359;-70
2022/11/09 07:26:54;;;;;;;;;5.00;5.00;;;;;12.95;78.50;100589.97;4977061;28;45589;-72
2022/11/09 07:29:19;;;;;;;;;8.67;7.33;;;;;13.20;78.52;100630.91;4979142;28;45367;-72
2022/11/09 07:31:44;;;;;;;;;5.00;4.00;;;;;13.26;78.44;100632.13;4978997;28;45657;-73
2022/11/09 07:34:10;;;;;;;;;7.00;5.00;;;;;13.32;77.95;100632.28;4979268;28;55264;-71
2022/11/09 07:36:38;;;;;;;;;2.33;2.33;;;;;12.95;77.86;100565.94;4981393;28;45537;-71
2022/11/09 07:39:03;;;;;;;;;4.00;4.00;;;;;12.99;77.43;100567.28;4981131;28;45355;-72
2022/11/09 07:41:29;;;;;;;;;5.00;3.00;;;;;13.43;77.10;100617.81;4980865;28;45535;-75
2022/11/09 07:43:54;;;;;;;;;6.33;4.33;;;;;13.43;77.18;100616.97;4981223;28;46667;-72
2022/11/09 07:46:19;;;;;;;;;7.67;6.33;;;;;13.46;77.16;100617.47;4980064;28;45926;-74
2022/11/09 07:48:45;;;;;;;;;4.33;3.67;;;;;13.56;77.16;100636.81;4973773;28;45340;-72
2022/11/09 07:51:10;;;;;;;;;6.00;5.00;;;;;11.95;76.64;100364.22;4971191;28;45457;-72
2022/11/09 07:53:36;;;;;;;;;6.67;4.00;;;;;13.07;77.02;100548.63;4979141;28;46191;-74
2022/11/09 07:56:03;;;;;;;;;8.00;5.33;;;;;13.58;76.95;100626.81;4978850;28;45627;-72
2022/11/09 07:58:29;;;;;;;;;4.33;4.33;;;;;13.47;76.83;100621.81;4975872;28;45536;-73
2022/11/09 08:00:55;;;;;;;;;8.67;5.33;;;;;13.40;77.08;100607.41;4977705;28;45577;-70
2022/11/09 08:03:21;;;;;;;;;3.67;3.67;;;;;13.08;76.47;100547.63;4971085;28;45572;-70
2022/11/09 08:05:47;;;;;;;;;5.67;4.67;;;;;13.53;76.72;100607.78;4979812;28;45720;-73
2022/11/09 08:08:15;;;;;;;;;7.00;6.00;;;;;13.90;75.78;100636.66;4978049;28;45500;-77
2022/11/09 08:10:41;;;;;;;;;9.00;8.33;;;;;13.46;75.11;100518.66;4997725;28;45467;-71
2022/11/09 08:13:10;;;;;;;;;11.67;8.67;;;;;14.59;74.30;100663.78;5014954;28;48513;-70
2022/11/09 08:15:37;;;;;;;;;12.00;10.33;;;;;14.83;73.95;100669.09;5018483;28;46062;-71
2022/11/09 08:18:05;;;;;;;;;6.00;6.00;;;;;14.82;72.84;100626.44;5017499;28;45425;-73
2022/11/09 08:20:31;;;;;;;;;5.00;5.00;;;;;15.03;72.11;100641.91;5000108;28;45368;-72
2022/11/09 08:22:56;;;;;;;;;7.67;7.33;;;;;15.39;71.53;100677.00;4982549;28;45447;-71
2022/11/09 08:25:22;;;;;;;;;9.67;7.00;;;;;15.28;70.84;100651.47;4983887;28;45266;-72
2022/11/09 08:27:48;;;;;;;;;6.00;6.00;;;;;15.37;70.93;100669.13;4982657;28;45283;-71
2022/11/09 08:30:19;;;;;;;;;4.33;4.33;;;;;15.30;70.91;100638.72;4979360;28;45195;-71
2022/11/09 08:32:44;;;;;;;;;3.67;3.00;;;;;15.24;70.25;100626.03;4978111;28;47386;-72
2022/11/09 08:35:15;;;;;;;;;5.00;5.00;;;;;15.06;69.96;100601.38;4979791;28;45350;-72
2022/11/09 08:37:41;;;;;;;;;8.00;4.67;;;;;15.66;69.91;100684.56;4979800;28;45530;-71
2022/11/09 08:40:07;;;;;;;;;8.33;7.00;;;;;15.15;69.53;100589.59;4979849;28;45494;-72
2022/11/09 08:42:32;;;;;;;;;11.00;9.67;;;;;15.71;69.10;100666.09;4978768;28;45607;-71
2022/11/09 08:44:57;;;;;;;;;6.33;5.00;;;;;15.59;68.75;100640.72;4978864;28;45412;-71
2022/11/09 08:47:23;;;;;;;;;16.00;12.67;;;;;15.93;68.49;100688.53;4978784;28;45821;-72
2022/11/09 08:49:48;;;;;;;;;5.33;4.67;;;;;16.00;68.74;100688.63;4980911;28;45526;-73
2022/11/09 08:52:15;;;;;;;;;4.00;4.00;;;;;16.27;67.59;100722.13;4978307;28;47601;-72
2022/11/09 08:54:41;;;;;;;;;8.33;5.00;;;;;15.67;66.94;100578.19;4978273;28;45634;-72
2022/11/09 08:57:06;;;;;;;;;1.00;1.00;;;;;16.49;66.71;100707.81;4994388;28;45450;-71
2022/11/09 08:59:32;;;;;;;;;6.00;4.33;;;;;16.45;66.82;100689.59;4979744;28;45383;-73
2022/11/09 09:01:57;;;;;;;;;4.33;2.67;;;;;16.80;66.12;100709.50;4979261;28;46522;-71
2022/11/09 09:04:23;;;;;;;;;4.00;4.00;;;;;16.75;64.88;100629.53;4978145;28;45289;-72
2022/11/09 09:06:48;;;;;;;;;7.00;4.00;;;;;16.85;63.89;100626.56;4978789;28;45476;-72
2022/11/09 09:09:13;;;;;;;;;5.00;4.00;;;;;17.31;63.57;100718.47;4979265;28;45533;-72
2022/11/09 09:11:39;;;;;;;;;5.50;3.00;;;;;16.53;63.74;100612.50;4979311;28;45841;-75
2022/11/09 09:14:04;;;;;;;;;3.50;3.00;;;;;16.80;64.25;100688.03;4977408;28;50440;-73
2022/11/09 09:16:30;;;;;;;;;4.00;2.75;;;;;16.84;64.41;100700.09;4978834;28;45384;-72
2022/11/09 09:18:55;;;;;;;;;5.00;4.00;;;;;16.94;64.50;100728.31;4979217;28;45379;-70
2022/11/09 09:21:20;;;;;;;;;11.33;11.00;;;;;16.01;64.26;100591.09;4978440;28;46147;-76
2022/11/09 09:23:48;;;;;;;;;3.67;2.00;;;;;16.24;64.38;100636.63;4979893;28;45361;-72
2022/11/09 09:26:14;;;;;;;;;1.25;0.00;;;;;16.57;64.32;100722.97;4980406;28;45326;-78
2022/11/09 09:28:39;;;;;;;;;2.25;2.25;;;;;16.46;65.13;100743.06;4980072;28;45229;-71
2022/11/09 09:31:05;;;;;;;;;2.67;2.00;;;;;16.43;65.50;100735.38;4978720;28;45475;-72
2022/11/09 09:33:31;;;;;;;;;2.50;2.00;;;;;16.45;65.29;100740.56;4978716;28;45345;-71
2022/11/09 09:35:58;;;;;;;;;3.00;3.00;;;;;16.18;65.71;100710.59;4979854;28;45238;-73
2022/11/09 09:38:26;;;;;;;;;4.33;3.00;;;;;16.16;65.74;100718.00;4978172;28;45571;-71
2022/11/09 09:40:59;;;;;;;;;4.00;3.00;;;;;16.18;65.86;100742.78;4979429;28;45610;-71
2022/11/09 09:43:43;;;;;;;;;3.00;3.00;;;;;16.17;66.28;100753.72;4977400;28;46174;-72
2022/11/09 09:46:36;;;;;;;;;4.00;3.00;;;;;16.18;66.60;100750.00;4979016;28;45635;-73
2022/11/09 09:49:06;;;;;;;;;6.00;4.00;;;;;16.27;66.31;100751.63;4979267;28;45490;-70
2022/11/09 09:51:39;;;;;;;;;3.67;3.67;;;;;16.21;66.04;100752.31;4976912;28;48401;-72
2022/11/09 09:54:14;;;;;;;;;3.25;3.00;;;;;15.33;66.22;100614.25;4978199;28;45323;-71
2022/11/09 09:56:43;;;;;;;;;6.33;3.00;;;;;16.02;66.61;100735.75;4977214;28;45449;-73
2022/11/09 09:59:08;;;;;;;;;4.33;2.00;;;;;16.08;66.45;100753.78;4979190;28;45567;-72
2022/11/09 10:01:41;;;;;;;;;3.67;3.33;;;;;15.84;66.01;100721.78;4978087;28;45501;-74
2022/11/09 10:04:33;;;;;;;;;3.33;2.00;;;;;15.72;66.34;100732.09;4977418;28;45429;-70
2022/11/09 10:07:40;;;;;;;;;4.00;2.00;;;;;16.04;65.92;100763.22;4978512;28;45589;-71
2022/11/09 10:10:14;;;;;;;;;4.33;2.00;;;;;15.54;65.94;100680.59;4964240;28;45505;-71
2022/11/09 10:13:05;;;;;;;;;1.67;1.67;;;;;16.05;65.97;100767.56;4975893;28;46145;-71
2022/11/09 10:15:36;;;;;;;;;5.00;4.00;;;;;14.15;65.80;100455.66;4992864;28;45504;-69
2022/11/09 10:18:23;;;;;;;;;4.00;2.00;;;;;16.19;65.47;100775.81;4978127;28;45498;-71
2022/11/09 10:21:08;;;;;;;;;2.00;1.00;;;;;16.21;65.51;100774.63;4978337;28;45368;-71
2022/11/09 10:23:51;;;;;;;;;2.00;2.00;;;;;16.29;65.29;100784.47;4980411;28;46649;-71
2022/11/09 10:26:22;;;;;;;;;1.67;1.00;;;;;16.29;64.32;100765.69;4977871;28;45338;-73
2022/11/09 10:28:55;;;;;;;;;3.00;1.00;;;;;16.61;63.64;100799.44;4979121;28;45439;-71
2022/11/09 10:31:22;;;;;;;;;3.33;3.00;;;;;16.72;63.29;100802.56;4979554;28;45303;-70
2022/11/09 10:33:54;;;;;;;;;3.00;3.00;;;;;15.80;62.81;100659.63;4989190;28;45988;-71
2022/11/09 10:36:38;;;;;;;;;0.75;0.75;;;;;16.65;62.49;100788.19;4958528;28;45226;-70
2022/11/09 10:39:11;;;;;;;;;3.00;1.67;;;;;16.70;61.75;100801.91;4959149;28;45409;-71
2022/11/09 10:41:45;;;;;;;;;1.50;0.25;;;;;16.51;61.57;100763.97;4960560;28;45311;-73
2022/11/09 10:44:16;;;;;;;;;4.50;1.75;;;;;16.63;61.53;100800.94;4977949;28;47537;-73
2022/11/09 10:47:11;;;;;;;;;2.25;0.25;;;;;16.57;61.41;100804.34;4958934;28;45274;-72
2022/11/09 10:49:38;;;;;;;;;1.00;1.00;;;;;16.13;61.35;100735.28;4973619;28;45342;-72
2022/11/09 10:52:05;;;;;;;;;4.00;3.00;;;;;16.13;61.29;100745.19;4957521;28;45529;-73
2022/11/09 10:54:36;;;;;;;;;1.00;1.00;;;;;16.45;61.13;100791.56;4958792;28;46497;-72
2022/11/09 10:57:22;;;;;;;;;2.50;1.50;;;;;16.60;60.92;100811.19;4958277;28;45467;-70
2022/11/09 10:59:48;;;;;;;;;1.00;1.00;;;;;16.62;61.16;100815.38;4957129;28;45352;-72
2022/11/09 11:02:23;;;;;;;;;9.67;5.67;;;;;16.73;61.48;100812.28;4961785;28;45537;-70
2022/11/09 11:04:48;;;;;;;;;1.50;1.00;;;;;16.84;61.04;100813.69;4978386;28;45782;-71
2022/11/09 11:07:18;;;;;;;;;1.50;1.00;;;;;16.72;60.77;100793.66;4979504;28;45318;-72
2022/11/09 11:09:43;;;;;;;;;7.75;2.50;;;;;17.01;61.01;100833.16;4981393;28;45511;-73
2022/11/09 11:12:19;;;;;;;;;1.00;1.00;;;;;16.58;60.37;100760.38;4981754;28;47732;-74
2022/11/09 11:14:45;;;;;;;;;2.00;0.50;;;;;16.97;60.24;100821.94;4980921;28;46344;-72
2022/11/09 11:17:26;;;;;;;;;3.00;1.00;;;;;17.11;60.14;100820.28;4980415;28;45548;-70
2022/11/09 11:19:52;;;;;;;;;3.50;2.00;;;;;17.28;59.75;100820.94;4981301;28;45354;-73
2022/11/09 11:22:26;;;;;;;;;2.50;2.50;;;;;17.42;59.45;100835.38;4998177;28;45300;-71
2022/11/09 11:24:57;;;;;;;;;2.75;2.75;;;;;17.49;58.88;100833.63;4982673;28;46126;-72
2022/11/09 11:27:26;;;;;;;;;2.00;2.00;;;;;17.44;58.43;100833.38;4980260;28;45764;-71
2022/11/09 11:29:58;;;;;;;;;2.00;1.00;;;;;17.43;58.49;100829.84;4977830;28;45321;-71